createdAt,value
2022-11-12T00:04:39.056Z,8.70
2022-11-12T00:09:45.776Z,8.90
2022-11-12T00:14:52.527Z,8.90
2022-11-12T00:19:59.280Z,8.80
2022-11-12T00:25:06.707Z,8.70
2022-11-12T00:30:14.048Z,8.80
2022-11-12T00:35:21.232Z,8.60
2022-11-12T00:40:28.732Z,8.60
2022-11-12T00:45:35.643Z,8.90
2022-11-12T00:50:42.643Z,8.70
2022-11-12T00:55:49.253Z,8.70
2022-11-12T01:00:56.293Z,8.70
2022-11-12T01:06:13.394Z,8.80
2022-11-12T01:11:30.519Z,8.60
2022-11-12T01:16:43.567Z,8.50
2022-11-12T01:21:50.086Z,8.80
2022-11-12T01:26:56.751Z,8.60
2022-11-12T01:32:03.859Z,8.80
2022-11-12T01:37:10.536Z,8.60
2022-11-12T01:42:17.525Z,8.70
2022-11-12T01:47:28.691Z,8.70
2022-11-12T01:52:42.908Z,8.80
2022-11-12T01:57:59.915Z,8.80
2022-11-12T02:03:12.050Z,8.80
2022-11-12T02:08:19.692Z,8.90
2022-11-12T02:13:44.334Z,9.00
2022-11-12T02:18:51.064Z,9.10
2022-11-12T02:24:17.059Z,9.00
2022-11-12T02:29:24.767Z,9.00
2022-11-12T02:34:31.430Z,8.90
2022-11-12T02:39:38.104Z,8.80
2022-11-12T02:44:45.078Z,9.00
2022-11-12T02:49:51.767Z,8.70
2022-11-12T02:54:58.481Z,9.00
2022-11-12T03:00:11.425Z,9.10
2022-11-12T03:05:18.226Z,9.20
2022-11-12T03:10:25.160Z,9.00
2022-11-12T03:15:32.363Z,9.00
2022-11-12T03:20:39.080Z,9.00
2022-11-12T03:25:45.916Z,9.30
2022-11-12T03:30:52.668Z,9.40
2022-11-12T03:35:59.359Z,9.20
2022-11-12T03:41:06.159Z,8.80
2022-11-12T03:46:12.862Z,8.90
2022-11-12T03:51:21.106Z,9.00
2022-11-12T03:56:27.821Z,9.00
2022-11-12T04:01:35.926Z,9.00
2022-11-12T04:07:00.292Z,8.80
2022-11-12T04:12:08.831Z,8.80
2022-11-12T04:17:33.434Z,8.90
2022-11-12T04:22:40.334Z,8.80
2022-11-12T04:27:47.143Z,8.90
2022-11-12T04:32:57.238Z,9.00
2022-11-12T04:38:04.370Z,9.00
2022-11-12T04:43:33.398Z,9.20
2022-11-12T04:48:40.122Z,9.10
2022-11-12T04:53:47.090Z,8.90
2022-11-12T04:58:53.948Z,8.90
2022-11-12T05:04:00.766Z,9.20
2022-11-12T05:09:07.505Z,9.10
2022-11-12T05:14:14.255Z,9.00
2022-11-12T05:19:21.621Z,8.90
2022-11-12T05:24:41.674Z,9.00
2022-11-12T05:29:37.569Z,9.00
2022-11-12T05:34:44.451Z,8.90
2022-11-12T05:39:51.285Z,9.00
2022-11-12T05:44:58.452Z,9.20
2022-11-12T05:50:05.505Z,9.20
2022-11-12T05:55:12.332Z,9.20
2022-11-12T06:00:19.297Z,9.10
2022-11-12T06:05:26.088Z,8.90
2022-11-12T06:10:33.536Z,9.10
2022-11-12T06:15:40.868Z,9.30
2022-11-12T06:20:49.482Z,9.40
2022-11-12T06:25:56.604Z,9.30
2022-11-12T06:31:03.367Z,9.30
2022-11-12T06:36:11.523Z,9.30
2022-11-12T06:41:20.366Z,9.20
2022-11-12T06:46:27.157Z,9.30
2022-11-12T06:51:34.446Z,9.40
2022-11-12T06:56:41.246Z,9.50
2022-11-12T07:01:48.247Z,9.50
2022-11-12T07:06:55.113Z,9.80
2022-11-12T07:12:01.951Z,9.70
2022-11-12T07:17:08.963Z,9.80
2022-11-12T07:22:15.763Z,10.00
2022-11-12T07:27:22.827Z,10.00
2022-11-12T07:32:30.171Z,10.30
2022-11-12T07:37:38.223Z,10.40
2022-11-12T07:42:45.169Z,10.50
2022-11-12T07:47:52.508Z,10.60
2022-11-12T07:53:02.248Z,10.50
2022-11-12T07:58:09.372Z,10.60
2022-11-12T08:03:16.256Z,10.40
2022-11-12T08:08:23.248Z,10.40
2022-11-12T08:13:29.989Z,10.30
2022-11-12T08:18:36.693Z,10.30
2022-11-12T08:23:43.649Z,10.20
2022-11-12T08:28:50.651Z,10.40
2022-11-12T08:33:57.452Z,10.60
2022-11-12T08:39:04.385Z,10.60
2022-11-12T08:44:11.041Z,10.80
2022-11-12T08:49:17.744Z,11.00
2022-11-12T08:54:25.014Z,10.90
2022-11-12T08:59:31.588Z,11.00
2022-11-12T09:04:38.274Z,11.00
2022-11-12T09:09:45.028Z,11.00
2022-11-12T09:14:56.120Z,11.00
2022-11-12T09:20:00.308Z,11.10
2022-11-12T09:25:07.997Z,11.10
2022-11-12T09:30:15.407Z,11.20
2022-11-12T09:35:23.017Z,11.40
2022-11-12T09:40:46.042Z,11.40
2022-11-12T09:46:21.548Z,11.40
2022-11-12T09:51:19.091Z,11.50
2022-11-12T09:56:29.959Z,11.60
2022-11-12T10:02:01.899Z,11.70
2022-11-12T10:07:40.867Z,11.80
2022-11-12T10:13:27.995Z,11.90
2022-11-12T10:19:19.499Z,11.90
2022-11-12T10:24:28.049Z,12.20
2022-11-12T10:29:45.318Z,12.50
2022-11-12T10:34:52.387Z,12.70
2022-11-12T10:39:59.072Z,12.60
2022-11-12T10:45:25.868Z,12.50
2022-11-12T10:50:40.475Z,12.50
2022-11-12T10:56:01.125Z,12.70
2022-11-12T11:01:17.958Z,12.70
2022-11-12T11:06:28.066Z,12.60
2022-11-12T11:11:35.773Z,12.80
2022-11-12T11:16:55.051Z,12.90
2022-11-12T11:22:18.257Z,13.00
2022-11-12T11:27:35.565Z,13.40
2022-11-12T11:33:07.687Z,13.30
2022-11-12T11:38:44.812Z,13.60
2022-11-12T11:44:29.295Z,13.60
2022-11-12T11:49:55.627Z,13.60
2022-11-12T11:55:21.555Z,13.90
2022-11-12T12:00:48.035Z,14.10
2022-11-12T12:06:28.416Z,14.30
2022-11-12T12:12:02.252Z,14.30
2022-11-12T12:17:39.156Z,14.40
2022-11-12T12:23:05.056Z,14.30
2022-11-12T12:28:43.086Z,14.10
2022-11-12T12:33:59.911Z,14.00
2022-11-12T12:39:47.651Z,13.80
2022-11-12T12:45:08.216Z,13.60
2022-11-12T12:50:17.778Z,13.30
2022-11-12T12:55:46.027Z,13.40
2022-11-12T13:01:13.440Z,13.40
2022-11-12T13:06:30.150Z,13.30
2022-11-12T13:12:07.176Z,13.30
2022-11-12T13:17:15.427Z,12.60
2022-11-12T13:22:29.584Z,12.60
2022-11-12T13:27:49.881Z,12.40
2022-11-12T13:32:59.304Z,12.30
2022-11-12T13:38:13.392Z,12.30
2022-11-12T13:43:39.018Z,11.90
2022-11-12T13:49:10.413Z,11.70
2022-11-12T13:54:38.081Z,11.60
2022-11-12T13:59:44.786Z,11.50
2022-11-12T14:04:52.582Z,11.30
2022-11-12T14:10:21.522Z,11.10
2022-11-12T14:15:32.815Z,10.90
2022-11-12T14:20:41.797Z,10.80
2022-11-12T14:25:55.245Z,10.70
2022-11-12T14:31:04.918Z,10.70
2022-11-12T14:36:19.560Z,10.50
2022-11-12T14:41:36.558Z,10.50
2022-11-12T14:46:56.331Z,10.40
2022-11-12T14:52:10.636Z,10.30
2022-11-12T14:57:21.923Z,10.10
2022-11-12T15:02:53.884Z,9.80
2022-11-12T15:08:09.984Z,9.70
2022-11-12T15:13:27.616Z,9.50
2022-11-12T15:18:36.268Z,9.40
2022-11-12T15:23:53.345Z,9.30
2022-11-12T15:29:13.144Z,9.30
2022-11-12T15:34:46.673Z,9.20
2022-11-12T15:40:05.422Z,9.20
2022-11-12T15:45:21.884Z,9.00
2022-11-12T15:50:28.873Z,9.00
2022-11-12T15:55:38.410Z,8.90
2022-11-12T16:00:45.519Z,8.90
2022-11-12T16:05:52.678Z,8.90
2022-11-12T16:10:59.594Z,8.90
2022-11-12T16:16:08.948Z,8.70
2022-11-12T16:21:20.651Z,8.60
2022-11-12T16:26:28.574Z,8.70
2022-11-12T16:31:35.573Z,8.70
2022-11-12T16:36:43.579Z,8.70
2022-11-12T16:41:50.402Z,8.70
2022-11-12T16:46:57.258Z,8.70
2022-11-12T16:52:04.530Z,8.60
2022-11-12T16:57:13.490Z,8.50
2022-11-12T17:02:20.558Z,8.60
2022-11-12T17:07:27.423Z,8.40
2022-11-12T17:12:34.313Z,8.30
2022-11-12T17:17:41.524Z,8.20
2022-11-12T17:22:48.721Z,8.20
2022-11-12T17:27:55.831Z,8.10
2022-11-12T17:33:02.925Z,8.30
2022-11-12T17:38:09.682Z,8.10
2022-11-12T17:43:16.892Z,8.10
2022-11-12T17:48:25.361Z,8.00
2022-11-12T17:53:32.847Z,7.70
2022-11-12T17:58:39.711Z,7.70
2022-11-12T18:03:50.816Z,7.90
2022-11-12T18:09:00.044Z,7.70
2022-11-12T18:14:11.350Z,7.60
2022-11-12T18:19:19.309Z,7.90
2022-11-12T18:24:26.190Z,7.90
2022-11-12T18:29:33.130Z,7.90
2022-11-12T18:34:41.733Z,8.00
2022-11-12T18:39:48.464Z,8.10
2022-11-12T18:44:55.471Z,8.00
2022-11-12T18:50:07.342Z,8.00
2022-11-12T18:55:11.412Z,8.00
2022-11-12T19:00:18.718Z,7.80
2022-11-12T19:05:25.483Z,7.60
2022-11-12T19:10:32.424Z,7.60
2022-11-12T19:15:39.119Z,7.50
2022-11-12T19:20:46.359Z,7.40
2022-11-12T19:25:53.788Z,7.60
2022-11-12T19:31:09.384Z,7.60
2022-11-12T19:36:21.324Z,7.60
2022-11-12T19:41:28.570Z,7.60
2022-11-12T19:46:35.530Z,7.60
2022-11-12T19:51:42.451Z,7.40
2022-11-12T19:56:49.285Z,7.50
2022-11-12T20:01:56.085Z,7.60
2022-11-12T20:07:03.216Z,7.50
2022-11-12T20:12:10.745Z,7.50
2022-11-12T20:17:17.618Z,7.60
2022-11-12T20:22:27.957Z,7.60
2022-11-12T20:27:33.125Z,7.70
2022-11-12T20:32:40.012Z,7.70
2022-11-12T20:37:47.215Z,7.80
2022-11-12T20:42:54.211Z,7.70
2022-11-12T20:48:01.374Z,7.60
2022-11-12T20:53:08.493Z,7.40
2022-11-12T20:58:15.767Z,7.50
2022-11-12T21:03:25.399Z,7.40
2022-11-12T21:08:34.603Z,7.40
2022-11-12T21:13:43.306Z,7.40
2022-11-12T21:18:50.602Z,7.50
2022-11-12T21:24:02.023Z,7.50
2022-11-12T21:29:07.469Z,7.50
2022-11-12T21:34:15.135Z,7.50
2022-11-12T21:39:21.943Z,7.50
2022-11-12T21:44:28.891Z,7.60
2022-11-12T21:49:36.056Z,7.70
2022-11-12T21:54:42.982Z,7.80
2022-11-12T21:59:49.951Z,7.80
2022-11-12T22:04:56.763Z,7.90
2022-11-12T22:10:03.618Z,8.00
2022-11-12T22:15:11.334Z,8.00
2022-11-12T22:20:18.488Z,8.10
2022-11-12T22:25:25.241Z,8.10
2022-11-12T22:30:32.722Z,8.20
2022-11-12T22:35:39.582Z,8.30
2022-11-12T22:40:46.609Z,8.20
2022-11-12T22:45:53.459Z,8.40
2022-11-12T22:51:05.870Z,8.40
2022-11-12T22:56:16.830Z,8.40
2022-11-12T23:01:27.677Z,8.50
2022-11-12T23:06:35.295Z,8.60
2022-11-12T23:11:42.475Z,8.60
2022-11-12T23:16:50.007Z,8.60
2022-11-12T23:21:57.157Z,8.60
2022-11-12T23:27:04.194Z,8.60
2022-11-12T23:32:11.232Z,8.70
2022-11-12T23:37:18.198Z,8.60
2022-11-12T23:42:25.088Z,8.40
2022-11-12T23:47:31.851Z,8.40
2022-11-12T23:52:38.777Z,8.40
2022-11-12T23:57:45.574Z,8.30
